Time;durP1;ratioP1;P1;durP2;ratioP2;P2;SDS_P1;SDS_P2;PMS_P1;PMS_P2;Temp;Humidity;BMP_temperature;BMP_pressure;BME280_temperature;BME280_humidity;BME280_pressure;Samples;Min_cycle;Max_cycle;Signal;HPM_P1;HPM_P2
2022/08/21 00:01:38;;;;;;;5.22;4.18;;;;;;;20.02;100.00;100831.13;4959193;28;20150;-62
2022/08/21 00:04:06;;;;;;;8.98;4.85;;;;;;;20.00;100.00;100830.44;4955990;28;20073;-58
2022/08/21 00:06:34;;;;;;;7.38;4.32;;;;;;;20.00;100.00;100826.94;4943046;28;20067;-61
2022/08/21 00:09:03;;;;;;;7.18;4.60;;;;;;;20.03;100.00;100829.28;4960242;28;20043;-63
2022/08/21 00:11:34;;;;;;;7.28;4.68;;;;;;;20.02;100.00;100819.59;4953537;28;20115;-63
2022/08/21 00:14:03;;;;;;;5.90;5.07;;;;;;;19.95;100.00;100830.88;4953919;28;20050;-61
2022/08/21 00:16:30;;;;;;;6.72;5.03;;;;;;;19.92;100.00;100833.00;4959951;28;20057;-62
2022/08/21 00:18:57;;;;;;;7.95;4.88;;;;;;;19.93;100.00;100826.66;4961347;28;20413;-62
2022/08/21 00:21:25;;;;;;;5.40;4.85;;;;;;;19.90;100.00;100826.94;4954362;28;20073;-63
2022/08/21 00:23:52;;;;;;;7.88;5.20;;;;;;;19.89;100.00;100820.75;4953705;28;20066;-63
2022/08/21 00:26:20;;;;;;;8.88;5.28;;;;;;;19.85;100.00;100818.53;4957558;28;20127;-61
2022/08/21 00:28:48;;;;;;;8.45;4.68;;;;;;;19.82;100.00;100817.00;4954207;28;20060;-61
2022/08/21 00:31:16;;;;;;;7.65;5.15;;;;;;;19.86;100.00;100814.88;4959247;28;20063;-62
2022/08/21 00:33:44;;;;;;;6.00;5.22;;;;;;;19.90;100.00;100821.59;4957483;28;20066;-63
2022/08/21 00:36:12;;;;;;;8.27;4.70;;;;;;;19.90;100.00;100825.13;4953050;28;20044;-62
2022/08/21 00:38:39;;;;;;;8.02;5.80;;;;;;;19.90;100.00;100826.94;4954156;28;20066;-58
2022/08/21 00:41:08;;;;;;;5.53;4.35;;;;;;;19.90;100.00;100826.94;4953540;28;20554;-62
2022/08/21 00:43:56;;;;;;;6.88;4.97;;;;;;;19.89;100.00;100830.59;4957614;28;20527;-63
2022/08/21 00:46:23;;;;;;;8.77;4.80;;;;;;;19.84;100.00;100824.88;4961570;28;20058;-62
2022/08/21 00:48:55;;;;;;;8.20;5.47;;;;;;;19.80;100.00;100824.31;4978484;28;20065;-62
2022/08/21 00:51:29;;;;;;;8.60;5.25;;;;;;;19.74;100.00;100819.56;4955258;28;20122;-60
2022/08/21 00:53:59;;;;;;;6.15;4.38;;;;;;;19.73;100.00;100824.06;4959624;28;20044;-62
2022/08/21 00:56:29;;;;;;;6.32;4.63;;;;;;;19.72;100.00;100825.06;4956742;28;20527;-63
2022/08/21 00:58:58;;;;;;;7.60;4.78;;;;;;;19.70;100.00;100828.84;4952153;28;20059;-62
2022/08/21 01:01:25;;;;;;;6.90;4.90;;;;;;;19.69;100.00;100829.84;4952863;28;20055;-63
2022/08/21 01:03:52;;;;;;;7.90;5.50;;;;;;;19.63;100.00;100831.25;4960891;28;20062;-63
2022/08/21 01:06:20;;;;;;;6.13;4.75;;;;;;;19.64;100.00;100822.25;4957072;28;20059;-63
2022/08/21 01:08:47;;;;;;;7.60;5.03;;;;;;;19.64;100.00;100824.94;4959721;28;20055;-61
2022/08/21 01:11:15;;;;;;;9.02;5.43;;;;;;;19.62;100.00;100826.03;4931968;29;20062;-62
2022/08/21 01:13:46;;;;;;;8.00;5.03;;;;;;;19.63;100.00;100827.72;4951022;28;20043;-63
2022/08/21 01:16:16;;;;;;;6.75;4.50;;;;;;;19.63;100.00;100825.03;4952847;28;20070;-63
2022/08/21 01:18:43;;;;;;;7.05;5.18;;;;;;;19.59;100.00;100829.81;4960235;28;20053;-63
2022/08/21 01:21:15;;;;;;;7.35;5.63;;;;;;;19.59;100.00;100829.81;4951307;28;20051;-63
2022/08/21 01:23:44;;;;;;;7.22;5.05;;;;;;;19.59;100.00;100829.00;4954678;28;20129;-63
2022/08/21 01:26:13;;;;;;;6.68;5.50;;;;;;;19.58;100.00;100828.13;4961204;28;20047;-63
2022/08/21 01:28:46;;;;;;;6.22;4.32;;;;;;;19.60;100.00;100826.19;4949935;28;20051;-64
2022/08/21 01:31:14;;;;;;;6.13;4.63;;;;;;;19.58;100.00;100825.44;4956105;28;20054;-63
2022/08/21 01:33:42;;;;;;;5.65;4.40;;;;;;;19.57;100.00;100826.44;4958698;28;20504;-62
2022/08/21 01:36:10;;;;;;;8.32;5.05;;;;;;;19.54;100.00;100831.22;4953511;28;20055;-63
2022/08/21 01:38:37;;;;;;;9.85;5.53;;;;;;;19.52;99.67;100827.88;4959150;28;20066;-64
2022/08/21 01:41:05;;;;;;;9.63;4.88;;;;;;;19.53;99.30;100829.53;4954955;28;20053;-63
2022/08/21 01:43:32;;;;;;;8.15;4.30;;;;;;;19.55;99.17;100833.75;4960499;28;20047;-61
2022/08/21 01:46:06;;;;;;;8.82;4.57;;;;;;;19.53;99.14;100830.38;4954581;29;20081;-64
2022/08/21 01:48:33;;;;;;;8.20;4.30;;;;;;;19.53;98.97;100829.53;4958070;28;20051;-62
2022/08/21 01:51:00;;;;;;;7.13;4.78;;;;;;;19.51;98.64;100834.19;4962513;28;20047;-62
2022/08/21 01:53:27;;;;;;;6.50;4.10;;;;;;;19.41;98.74;100834.22;4956076;28;20054;-59
2022/08/21 01:56:00;;;;;;;6.25;4.40;;;;;;;19.35;99.19;100826.75;4954288;28;20054;-62
2022/08/21 01:58:27;;;;;;;10.95;4.63;;;;;;;19.32;98.97;100827.91;4953974;28;20403;-60
2022/08/21 02:00:54;;;;;;;6.93;4.47;;;;;;;19.26;99.05;100832.94;4950222;28;20432;-63
2022/08/21 02:03:21;;;;;;;7.35;4.40;;;;;;;19.24;99.09;100825.09;4956152;28;20055;-62
2022/08/21 02:06:05;;;;;;;7.07;4.22;;;;;;;19.20;98.78;100832.53;4960618;28;20067;-61
2022/08/21 02:08:32;;;;;;;6.72;4.18;;;;;;;19.15;99.21;100832.13;4956259;28;20139;-61
2022/08/21 02:11:00;;;;;;;6.53;3.50;;;;;;;19.13;98.89;100830.56;4952730;28;20054;-63
2022/08/21 02:13:27;;;;;;;9.30;4.20;;;;;;;19.10;98.88;100829.03;4956429;28;20043;-61
2022/08/21 02:15:54;;;;;;;6.40;3.97;;;;;;;19.07;98.68;100823.97;4960599;28;20440;-61
2022/08/21 02:18:21;;;;;;;4.28;3.67;;;;;;;19.05;98.54;100823.28;4960283;28;20055;-61
2022/08/21 02:20:48;;;;;;;6.38;4.03;;;;;;;19.00;98.46;100822.81;4951792;28;20077;-62
2022/08/21 02:23:23;;;;;;;8.02;4.30;;;;;;;18.99;98.33;100826.47;4961787;28;20050;-62
2022/08/21 02:26:04;;;;;;;9.38;4.07;;;;;;;18.96;98.37;100832.13;4953766;28;20073;-61
2022/08/21 02:28:32;;;;;;;17.30;4.10;;;;;;;18.90;98.09;100824.66;4952289;28;20495;-61
2022/08/21 02:30:59;;;;;;;6.78;3.63;;;;;;;18.91;98.11;100827.19;4957170;28;20143;-61
2022/08/21 02:33:26;;;;;;;9.55;3.65;;;;;;;18.90;97.93;100832.66;4958614;28;20050;-59
2022/08/21 02:35:54;;;;;;;8.55;3.80;;;;;;;18.92;97.74;100828.88;4951619;28;20070;-62
2022/08/21 02:38:27;;;;;;;7.88;3.70;;;;;;;18.88;97.47;100832.81;4954796;28;20058;-63
2022/08/21 02:40:55;;;;;;;6.53;3.97;;;;;;;18.82;97.04;100835.16;4952634;28;20627;-62
2022/08/21 02:43:24;;;;;;;10.80;3.63;;;;;;;18.75;96.75;100831.38;4961323;28;20484;-62
2022/08/21 02:45:51;;;;;;;6.55;3.10;;;;;;;18.73;96.74;100823.50;4957991;28;20066;-62
2022/08/21 02:48:22;;;;;;;7.03;3.30;;;;;;;18.71;96.89;100820.97;4957422;28;20062;-61
2022/08/21 02:51:01;;;;;;;9.40;3.55;;;;;;;18.72;96.78;100829.81;4953736;28;20098;-62
2022/08/21 02:53:29;;;;;;;6.57;3.20;;;;;;;18.68;96.44;100831.88;4952839;28;20154;-63
2022/08/21 02:55:58;;;;;;;6.35;2.95;;;;;;;18.71;96.25;100831.66;4955669;28;20043;-63
2022/08/21 02:58:31;;;;;;;5.60;3.10;;;;;;;18.75;95.83;100832.22;4954966;28;20047;-58
2022/08/21 03:00:58;;;;;;;9.43;3.42;;;;;;;18.66;94.85;100825.84;4954044;28;20360;-63
2022/08/21 03:03:27;;;;;;;10.43;3.20;;;;;;;18.62;95.25;100829.78;4950325;28;20055;-58
2022/08/21 03:05:55;;;;;;;6.60;2.97;;;;;;;18.61;95.12;100832.59;4956910;28;20051;-61
2022/08/21 03:08:22;;;;;;;4.60;2.75;;;;;;;18.54;95.20;100826.94;4954969;28;20384;-62
2022/08/21 03:10:53;;;;;;;5.07;2.80;;;;;;;18.56;95.35;100830.34;4961645;28;20059;-62
2022/08/21 03:13:21;;;;;;;7.35;3.65;;;;;;;18.50;95.41;100824.69;4950352;28;20059;-62
2022/08/21 03:15:49;;;;;;;7.05;2.83;;;;;;;18.40;94.78;100822.00;4948851;28;20055;-61
2022/08/21 03:18:16;;;;;;;5.28;3.05;;;;;;;18.40;95.30;100820.19;4959603;28;20051;-62
2022/08/21 03:20:44;;;;;;;7.00;2.95;;;;;;;18.36;94.09;100824.09;4952346;28;20051;-61
2022/08/21 03:23:13;;;;;;;6.40;2.53;;;;;;;18.34;94.44;100820.75;4959537;28;20051;-61
2022/08/21 03:25:45;;;;;;;7.75;3.17;;;;;;;18.37;94.33;100824.94;4963058;28;20057;-62
2022/08/21 03:28:15;;;;;;;6.72;2.58;;;;;;;18.38;94.11;100821.31;4955098;28;20055;-61
2022/08/21 03:30:43;;;;;;;5.18;2.65;;;;;;;18.36;93.77;100821.44;4951014;28;20523;-61
2022/08/21 03:33:11;;;;;;;5.07;2.35;;;;;;;18.28;93.39;100823.09;4956783;28;20038;-62
2022/08/21 03:35:43;;;;;;;5.68;2.50;;;;;;;18.27;93.83;100827.56;4950124;28;20086;-62
2022/08/21 03:38:12;;;;;;;6.22;3.03;;;;;;;18.29;93.91;100816.81;4960495;28;20058;-62
2022/08/21 03:40:40;;;;;;;7.65;2.35;;;;;;;18.31;93.48;100825.50;4954650;28;20056;-61
2022/08/21 03:43:09;;;;;;;6.30;2.70;;;;;;;18.27;93.03;100824.06;4964751;28;20431;-61
2022/08/21 03:45:37;;;;;;;7.00;2.78;;;;;;;18.20;93.36;100821.94;4953693;28;20063;-61
2022/08/21 03:48:05;;;;;;;6.68;2.33;;;;;;;18.20;93.52;100824.63;4954489;28;20066;-62
2022/08/21 03:50:37;;;;;;;5.50;2.15;;;;;;;18.19;93.34;100825.59;4949357;28;20054;-61
2022/08/21 03:53:11;;;;;;;10.45;3.03;;;;;;;18.15;93.22;100826.00;4960488;28;20059;-62
2022/08/21 03:55:45;;;;;;;9.25;3.22;;;;;;;18.09;93.09;100830.03;4959798;28;20503;-61
2022/08/21 03:58:14;;;;;;;4.82;2.50;;;;;;;18.07;93.26;100828.50;4958629;28;20059;-61
2022/08/21 04:00:45;;;;;;;6.75;2.45;;;;;;;18.12;93.25;100831.59;4959930;28;20051;-62
2022/08/21 04:03:12;;;;;;;5.47;2.58;;;;;;;18.17;93.06;100829.38;4957408;28;20143;-62
2022/08/21 04:05:39;;;;;;;8.50;2.50;;;;;;;18.18;93.17;100836.38;4960455;28;20074;-60
2022/08/21 04:08:06;;;;;;;6.53;2.40;;;;;;;18.11;92.43;100836.09;4958898;28;20135;-62
2022/08/21 04:10:36;;;;;;;6.03;2.38;;;;;;;18.02;93.04;100831.56;4962241;28;20046;-61
2022/08/21 04:13:04;;;;;;;8.73;2.90;;;;;;;17.98;93.67;100835.47;4955399;28;20056;-60
2022/08/21 04:15:31;;;;;;;9.40;2.80;;;;;;;17.92;93.54;100839.50;4951386;28;20055;-62
2022/08/21 04:17:59;;;;;;;10.10;2.58;;;;;;;17.92;93.85;100836.84;4959860;28;20051;-62
2022/08/21 04:20:26;;;;;;;5.57;2.85;;;;;;;17.99;93.90;100842.47;4957705;28;20051;-60
2022/08/21 04:22:54;;;;;;;8.65;2.50;;;;;;;18.01;93.59;100851.16;4955975;28;20054;-62
2022/08/21 04:25:25;;;;;;;7.82;2.60;;;;;;;18.00;93.76;100852.13;4958230;28;20047;-62
2022/08/21 04:27:52;;;;;;;11.05;3.42;;;;;;;18.06;93.43;100848.97;4953233;28;20061;-61
2022/08/21 04:30:20;;;;;;;6.45;2.30;;;;;;;18.11;93.09;100840.56;4961000;28;20053;-60
2022/08/21 04:32:56;;;;;;;10.48;2.50;;;;;;;18.12;92.88;100834.25;4951647;28;20464;-62
2022/08/21 04:35:26;;;;;;;5.20;2.28;;;;;;;18.12;92.45;100836.91;4961595;28;20042;-62
2022/08/21 04:37:53;;;;;;;4.90;2.50;;;;;;;18.13;92.51;100839.44;4954968;28;20531;-62
2022/08/21 04:40:23;;;;;;;6.68;2.78;;;;;;;18.16;92.21;100849.00;4955813;28;20051;-62
2022/08/21 04:42:54;;;;;;;5.32;2.30;;;;;;;18.13;91.41;100843.94;4960760;28;20426;-62
2022/08/21 04:45:29;;;;;;;8.60;2.83;;;;;;;18.09;91.34;100845.19;4961791;28;20134;-62
2022/08/21 04:47:59;;;;;;;11.10;2.47;;;;;;;18.09;91.25;100846.00;4965386;28;20051;-64
2022/08/21 04:50:38;;;;;;;8.15;2.65;;;;;;;18.05;90.36;100841.09;4954604;28;20653;-63
2022/08/21 04:53:08;;;;;;;8.05;2.28;;;;;;;18.00;89.92;100843.31;4947035;28;20059;-64
2022/08/21 04:55:37;;;;;;;7.32;2.03;;;;;;;17.95;89.75;100846.38;4955514;28;20077;-62
2022/08/21 04:58:09;;;;;;;8.52;2.30;;;;;;;17.92;89.72;100850.16;4960968;28;20142;-63
2022/08/21 05:00:36;;;;;;;8.23;1.98;;;;;;;17.95;89.82;100852.53;4955591;28;20066;-65
2022/08/21 05:03:05;;;;;;;4.35;1.60;;;;;;;17.96;89.54;100843.56;4955582;28;20074;-64
2022/08/21 05:05:32;;;;;;;8.10;2.20;;;;;;;17.98;89.28;100851.44;4954580;28;20054;-63
2022/08/21 05:08:01;;;;;;;7.55;2.03;;;;;;;17.98;89.38;100840.78;4968182;28;20058;-62
2022/08/21 05:10:28;;;;;;;7.45;2.15;;;;;;;18.01;89.16;100845.00;4955137;28;20062;-64
2022/08/21 05:12:55;;;;;;;5.30;2.47;;;;;;;18.01;88.87;100843.16;4953746;28;20051;-62
2022/08/21 05:15:22;;;;;;;5.18;2.03;;;;;;;18.07;88.73;100847.97;4933987;28;20056;-63
2022/08/21 05:17:50;;;;;;;5.60;2.33;;;;;;;18.10;88.85;100853.06;4961049;28;20062;-62
2022/08/21 05:20:23;;;;;;;9.30;1.88;;;;;;;18.10;88.31;100850.38;4957915;28;20094;-63
2022/08/21 05:22:50;;;;;;;10.20;2.28;;;;;;;18.07;88.42;100855.97;4955074;28;20055;-61
2022/08/21 05:25:17;;;;;;;7.78;2.20;;;;;;;18.04;88.66;100858.91;4960136;28;20058;-64
2022/08/21 05:27:48;;;;;;;6.72;1.98;;;;;;;18.08;88.84;100865.66;4954256;28;20059;-60
2022/08/21 05:30:19;;;;;;;9.75;2.53;;;;;;;18.12;88.44;100863.56;4960495;28;20065;-62
2022/08/21 05:32:47;;;;;;;7.45;2.38;;;;;;;18.07;88.65;100860.47;4955482;28;20051;-62
2022/08/21 05:35:14;;;;;;;16.17;2.65;;;;;;;18.04;88.71;100863.38;4955469;28;20055;-63
2022/08/21 05:37:41;;;;;;;6.68;2.05;;;;;;;18.07;88.97;100863.13;4954233;28;20070;-63
2022/08/21 05:40:09;;;;;;;10.07;1.95;;;;;;;18.09;88.87;100870.00;4954581;28;20066;-61
2022/08/21 05:42:48;;;;;;;6.28;2.08;;;;;;;18.11;88.76;100869.88;4956585;28;20130;-62
2022/08/21 05:45:30;;;;;;;3.45;1.60;;;;;;;18.16;88.76;100870.31;4955066;28;20056;-61
2022/08/21 05:48:18;;;;;;;3.92;1.45;;;;;;;18.20;88.67;100869.91;4961236;28;20562;-62
2022/08/21 05:50:47;;;;;;;10.68;3.05;;;;;;;18.19;88.98;100870.03;4949707;28;20055;-62
2022/08/21 05:53:15;;;;;;;7.13;1.88;;;;;;;18.15;88.41;100864.16;4955928;28;20110;-62
2022/08/21 05:55:43;;;;;;;8.05;2.10;;;;;;;18.12;87.94;100872.41;4957074;28;20046;-63
2022/08/21 05:58:18;;;;;;;11.48;2.28;;;;;;;18.05;87.83;100873.91;4963430;28;20047;-62
2022/08/21 06:00:47;;;;;;;4.70;1.45;;;;;;;18.04;87.90;100866.88;4953439;28;20054;-62
2022/08/21 06:03:23;;;;;;;11.18;2.63;;;;;;;18.03;88.07;100875.88;4954850;28;20051;-62
2022/08/21 06:05:51;;;;;;;6.38;1.90;;;;;;;18.01;88.09;100872.47;4952840;28;20413;-62
2022/08/21 06:08:18;;;;;;;6.20;1.73;;;;;;;18.01;87.69;100876.97;4956629;28;20055;-63
2022/08/21 06:10:47;;;;;;;9.63;1.80;;;;;;;17.97;87.49;100873.75;4959366;28;20089;-62
2022/08/21 06:13:15;;;;;;;8.15;1.67;;;;;;;17.98;87.61;100877.25;4956635;28;20062;-61
2022/08/21 06:15:42;;;;;;;6.05;1.92;;;;;;;18.05;87.47;100881.03;4954799;28;20054;-60
2022/08/21 06:18:10;;;;;;;6.35;1.48;;;;;;;18.09;87.41;100877.16;4962981;28;20043;-62
2022/08/21 06:20:38;;;;;;;10.70;2.20;;;;;;;18.10;86.59;100877.03;4951477;28;20418;-62
2022/08/21 06:23:05;;;;;;;7.68;1.90;;;;;;;18.01;86.88;100879.63;4952236;28;20047;-62
2022/08/21 06:25:32;;;;;;;8.77;1.60;;;;;;;18.04;86.76;100876.69;4956319;28;20053;-61
2022/08/21 06:28:08;;;;;;;4.57;1.63;;;;;;;18.06;86.32;100880.94;4962650;28;20047;-60
2022/08/21 06:30:36;;;;;;;11.13;2.40;;;;;;;18.10;86.59;100882.38;4953271;28;20067;-62
2022/08/21 06:33:03;;;;;;;7.95;1.70;;;;;;;18.17;86.27;100880.84;4951724;28;20050;-63
2022/08/21 06:35:30;;;;;;;7.65;2.30;;;;;;;18.21;85.86;100884.91;4953352;28;20058;-63
2022/08/21 06:37:58;;;;;;;5.47;1.70;;;;;;;18.26;85.82;100879.19;4953268;28;20393;-63
2022/08/21 06:40:28;;;;;;;9.55;2.95;;;;;;;18.33;85.71;100879.53;4955393;28;20055;-63
2022/08/21 06:42:58;;;;;;;4.25;1.80;;;;;;;18.38;85.62;100879.97;4964629;28;20058;-62
2022/08/21 06:45:27;;;;;;;5.97;2.13;;;;;;;18.41;85.15;100885.84;4953450;28;20047;-63
2022/08/21 06:47:59;;;;;;;7.50;2.00;;;;;;;18.44;85.13;100887.41;4958947;28;20516;-63
2022/08/21 06:50:26;;;;;;;6.35;1.88;;;;;;;18.35;84.51;100878.38;4943868;28;20059;-64
2022/08/21 06:53:19;;;;;;;7.07;1.80;;;;;;;18.28;84.87;100879.03;4960157;28;20058;-62
2022/08/21 06:55:47;;;;;;;5.55;1.95;;;;;;;18.32;85.14;100886.63;4963381;28;20491;-63
2022/08/21 06:58:15;;;;;;;8.55;2.00;;;;;;;18.45;85.06;100881.09;4959477;28;20062;-63
2022/08/21 07:00:45;;;;;;;6.65;1.65;;;;;;;18.56;84.33;100881.00;4952975;28;20054;-63
2022/08/21 07:03:29;;;;;;;4.68;1.58;;;;;;;18.65;83.78;100877.50;4955736;28;20058;-62
2022/08/21 07:05:58;;;;;;;4.43;1.57;;;;;;;18.71;83.18;100877.00;4943978;29;20046;-62
2022/08/21 07:08:26;;;;;;;6.85;2.30;;;;;;;18.75;83.11;100874.06;4957503;28;20047;-63
2022/08/21 07:10:55;;;;;;;6.78;1.58;;;;;;;18.84;82.96;100874.06;4951859;28;20062;-62
2022/08/21 07:13:22;;;;;;;12.48;2.05;;;;;;;18.89;82.13;100879.00;4954890;28;20059;-63
2022/08/21 07:15:50;;;;;;;5.10;1.85;;;;;;;18.96;81.95;100877.47;4954501;28;20051;-62
2022/08/21 07:18:17;;;;;;;8.43;1.92;;;;;;;19.02;81.65;100874.25;4952118;28;20059;-62
2022/08/21 07:20:45;;;;;;;7.13;2.83;;;;;;;19.05;81.00;100870.44;4964929;28;20050;-63
2022/08/21 07:23:34;;;;;;;8.70;2.08;;;;;;;19.08;81.03;100871.00;4962293;28;20054;-61
2022/08/21 07:26:01;;;;;;;9.40;2.30;;;;;;;19.08;80.46;100867.50;4956301;28;20424;-64
2022/08/21 07:28:29;;;;;;;6.45;1.67;;;;;;;19.11;79.37;100878.75;4963212;28;20068;-62
2022/08/21 07:30:57;;;;;;;10.95;2.22;;;;;;;19.14;78.98;100877.63;4950612;28;20059;-63
2022/08/21 07:33:26;;;;;;;9.48;1.88;;;;;;;19.22;79.25;100875.09;4953092;28;20063;-63
2022/08/21 07:35:54;;;;;;;6.88;2.50;;;;;;;19.26;76.81;100872.97;4956111;28;20062;-63
2022/08/21 07:38:22;;;;;;;11.00;2.17;;;;;;;19.29;75.79;100875.38;4958367;28;20400;-63
2022/08/21 07:40:51;;;;;;;4.15;1.50;;;;;;;19.28;75.34;100868.38;4954682;28;20390;-63
2022/08/21 07:43:18;;;;;;;7.65;2.20;;;;;;;19.23;73.29;100864.28;4956264;28;20051;-64
2022/08/21 07:45:46;;;;;;;12.55;2.72;;;;;;;19.28;74.46;100869.19;4954148;28;20059;-63
2022/08/21 07:48:13;;;;;;;6.35;1.40;;;;;;;19.38;74.66;100869.19;4956227;28;20687;-63
2022/08/21 07:50:41;;;;;;;5.07;1.48;;;;;;;19.39;72.99;100869.03;4936990;28;20043;-63
2022/08/21 07:53:08;;;;;;;4.88;1.33;;;;;;;19.46;72.94;100869.34;4955991;28;20411;-63
2022/08/21 07:55:35;;;;;;;6.05;1.23;;;;;;;19.53;72.15;100869.59;4957052;28;20055;-63
2022/08/21 07:58:02;;;;;;;9.15;2.50;;;;;;;19.59;72.60;100877.06;4959039;28;20063;-63
2022/08/21 08:00:30;;;;;;;6.03;1.30;;;;;;;19.58;70.28;100870.84;4952780;28;20059;-63
2022/08/21 08:02:57;;;;;;;5.00;1.65;;;;;;;19.61;70.15;100880.44;4954585;28;20054;-62
2022/08/21 08:05:28;;;;;;;3.22;1.15;;;;;;;19.64;69.92;100874.84;4952352;28;20063;-65
2022/08/21 08:07:55;;;;;;;5.30;1.33;;;;;;;19.68;69.81;100870.88;4960037;28;20051;-63
2022/08/21 08:10:23;;;;;;;5.60;1.50;;;;;;;19.70;67.76;100879.59;4955984;28;20396;-64
2022/08/21 08:12:51;;;;;;;8.50;1.27;;;;;;;19.67;66.95;100874.53;4955185;28;20062;-64
2022/08/21 08:15:21;;;;;;;7.28;1.48;;;;;;;19.67;68.12;100874.53;4952885;28;20044;-62
2022/08/21 08:17:48;;;;;;;6.38;1.25;;;;;;;19.78;68.93;100876.22;4957352;28;20055;-62
2022/08/21 08:20:18;;;;;;;7.75;1.35;;;;;;;19.87;67.40;100870.00;4954623;28;20138;-62
2022/08/21 08:22:45;;;;;;;2.50;1.20;;;;;;;19.93;68.23;100875.59;4954342;28;20051;-62
2022/08/21 08:25:27;;;;;;;4.53;1.45;;;;;;;20.06;67.76;100877.13;4957753;28;20062;-62
2022/08/21 08:28:04;;;;;;;4.93;1.50;;;;;;;20.11;65.51;100873.00;4967292;28;20055;-63
2022/08/21 08:30:46;;;;;;;5.43;1.30;;;;;;;20.20;67.03;100871.28;4966611;28;20054;-62
2022/08/21 08:33:14;;;;;;;6.15;1.30;;;;;;;20.29;67.23;100878.44;4964798;28;20054;-61
2022/08/21 08:35:42;;;;;;;3.88;1.25;;;;;;;20.39;67.05;100871.19;4971577;28;20142;-62
2022/08/21 08:38:10;;;;;;;6.95;1.73;;;;;;;20.53;67.32;100869.06;4959552;28;20058;-62
2022/08/21 08:40:52;;;;;;;6.68;1.50;;;;;;;20.62;66.88;100877.03;4954861;28;20444;-62
2022/08/21 08:43:21;;;;;;;5.20;1.20;;;;;;;20.64;64.90;100872.38;4970285;28;20130;-61
2022/08/21 08:45:50;;;;;;;5.65;1.70;;;;;;;20.65;65.04;100875.91;4970050;28;20051;-62
2022/08/21 08:48:52;;;;;;;7.53;1.67;;;;;;;20.71;64.44;100872.59;4960651;28;20809;-62
2022/08/21 08:51:35;;;;;;;6.38;2.05;;;;;;;20.79;64.69;100869.19;4954492;28;20054;-62
2022/08/21 08:54:08;;;;;;;6.43;2.22;;;;;;;20.85;64.67;100868.56;4959786;28;20054;-62
2022/08/21 08:56:35;;;;;;;8.98;1.77;;;;;;;20.91;64.45;100865.31;4965728;28;20055;-62
2022/08/21 08:59:15;;;;;;;4.38;1.40;;;;;;;20.93;62.64;100863.31;4959898;28;20061;-61
2022/08/21 09:01:43;;;;;;;4.47;1.35;;;;;;;20.94;63.29;100857.84;4941407;28;20050;-63
2022/08/21 09:04:14;;;;;;;6.10;1.77;;;;;;;20.85;61.55;100856.06;4955352;28;20151;-63
2022/08/21 09:06:53;;;;;;;7.32;1.98;;;;;;;20.80;61.74;100858.34;4954976;28;20247;-62
2022/08/21 09:09:39;;;;;;;5.10;1.33;;;;;;;20.89;63.51;100861.94;4965586;28;20062;-62
2022/08/21 09:12:17;;;;;;;4.55;1.27;;;;;;;20.97;62.20;100859.34;4961621;28;20076;-62
2022/08/21 09:17:24;;;;;;;5.90;2.10;;;;;;;21.02;61.48;100858.88;5011954;28;20899;-63
2022/08/21 09:20:39;;;;;;;6.13;1.80;;;;;;;21.04;61.92;100860.44;5003617;28;20141;-64
2022/08/21 09:23:09;;;;;;;7.07;1.50;;;;;;;21.05;61.84;100862.13;4999538;28;20057;-64
2022/08/21 09:25:42;;;;;;;6.88;1.75;;;;;;;21.13;60.66;100864.03;5009018;28;20059;-64
2022/08/21 09:28:12;;;;;;;7.75;1.65;;;;;;;21.13;60.26;100867.56;5009543;28;20054;-64
2022/08/21 09:30:41;;;;;;;3.80;1.55;;;;;;;21.16;60.19;100863.72;5008891;28;20065;-64
2022/08/21 09:33:11;;;;;;;4.60;1.42;;;;;;;21.16;59.78;100861.03;5001978;28;20495;-64
2022/08/21 09:35:51;;;;;;;5.63;1.42;;;;;;;21.18;60.11;100859.06;5004424;28;20058;-64
2022/08/21 09:38:33;;;;;;;6.82;1.58;;;;;;;21.16;59.47;100859.22;5003658;28;20542;-64
2022/08/21 09:41:06;;;;;;;6.38;1.83;;;;;;;21.01;58.07;100866.09;5002254;28;20395;-64
2022/08/21 09:43:35;;;;;;;5.82;1.65;;;;;;;20.98;59.85;100858.34;5007685;28;20052;-64
2022/08/21 09:46:20;;;;;;;6.38;1.55;;;;;;;21.07;59.26;100862.78;5007530;28;20394;-64
2022/08/21 09:48:50;;;;;;;6.72;1.67;;;;;;;21.13;59.94;100856.84;5002945;28;20073;-64
2022/08/21 09:51:21;;;;;;;5.57;1.30;;;;;;;21.18;60.05;100857.22;5008317;28;20695;-64
2022/08/21 09:53:53;;;;;;;4.18;1.42;;;;;;;21.24;60.54;100859.28;5008976;28;20065;-64
2022/08/21 09:59:31;;;;;;;6.00;1.20;;;;;;;21.38;59.07;100859.75;4990405;28;20064;-65
2022/08/21 10:02:21;;;;;;;5.25;1.35;;;;;;;21.46;59.24;100866.03;5016507;28;20053;-65
2022/08/21 10:05:01;;;;;;;3.03;1.17;;;;;;;21.48;58.09;100864.03;5005624;28;20050;-65
2022/08/21 10:07:31;;;;;;;6.40;2.00;;;;;;;21.50;56.47;100863.88;5007995;28;20038;-64
2022/08/21 10:10:08;;;;;;;2.58;1.25;;;;;;;21.52;56.78;100864.56;5008831;28;20513;-65
2022/08/21 10:12:50;;;;;;;4.03;1.73;;;;;;;21.53;56.87;100860.91;5005652;28;20092;-65
2022/08/21 10:15:30;;;;;;;3.83;1.30;;;;;;;21.61;58.19;100862.78;5000575;28;20564;-64
2022/08/21 10:18:14;;;;;;;4.07;1.75;;;;;;;21.61;56.92;100863.63;5015611;28;20049;-64
2022/08/21 10:20:47;;;;;;;6.55;2.38;;;;;;;21.68;57.53;100856.66;5011237;28;20049;-64
2022/08/21 10:23:34;;;;;;;9.48;1.90;;;;;;;21.79;58.31;100868.94;5008344;28;20513;-55
2022/08/21 10:26:21;;;;;;;5.30;1.67;;;;;;;21.92;58.84;100864.00;4974990;28;20056;-52
2022/08/21 10:29:02;;;;;;;4.18;1.52;;;;;;;21.98;57.80;100870.59;5015033;28;20050;-52
2022/08/21 10:31:34;;;;;;;5.28;1.60;;;;;;;21.95;57.96;100869.06;5008692;28;20050;-49
2022/08/21 10:34:16;;;;;;;4.45;1.50;;;;;;;21.98;58.39;100873.25;5016964;28;20059;-46
2022/08/21 10:37:10;;;;;;;5.85;1.52;;;;;;;22.06;59.36;100872.44;5013609;28;20046;-55
2022/08/21 10:39:44;;;;;;;5.35;1.67;;;;;;;22.12;59.70;100864.66;5012637;28;20473;-51
2022/08/21 10:42:24;;;;;;;3.90;1.30;;;;;;;22.17;58.44;100870.38;5020842;28;20046;-51
2022/08/21 10:45:08;;;;;;;3.97;1.35;;;;;;;22.19;57.99;100868.38;5013846;28;20049;-52
2022/08/21 10:47:54;;;;;;;6.93;1.70;;;;;;;22.24;55.60;100868.75;5011587;28;20061;-50
2022/08/21 10:50:42;;;;;;;5.05;1.73;;;;;;;22.27;56.83;100864.06;5013868;28;20424;-54
2022/08/21 10:53:40;;;;;;;3.35;1.40;;;;;;;22.34;54.85;100870.47;5011975;28;20049;-52
2022/08/21 10:56:16;;;;;;;5.40;2.05;;;;;;;22.36;54.04;100865.78;5009233;28;20128;-52
2022/08/21 10:59:22;;;;;;;3.75;1.40;;;;;;;22.19;53.29;100876.41;5011782;28;20061;-51
2022/08/21 11:01:49;;;;;;;4.38;1.42;;;;;;;22.21;54.03;100869.06;5010601;28;20525;-56
2022/08/21 11:04:24;;;;;;;6.53;1.60;;;;;;;22.30;55.13;100869.94;4999714;28;20057;-52
2022/08/21 11:07:07;;;;;;;4.68;1.48;;;;;;;22.34;52.84;100857.91;5009511;28;20045;-55
2022/08/21 11:09:45;;;;;;;4.72;1.55;;;;;;;22.31;51.70;100876.16;5008696;28;20599;-48
2022/08/21 11:12:29;;;;;;;5.72;1.33;;;;;;;22.28;52.68;100871.09;5005751;28;20054;-54
2022/08/21 11:15:05;;;;;;;4.63;1.63;;;;;;;22.41;53.71;100868.81;5009984;28;20050;-56
2022/08/21 11:17:41;;;;;;;7.20;1.60;;;;;;;22.57;54.29;100863.53;5007819;28;20061;-51
2022/08/21 11:20:21;;;;;;;;;;;;;;;22.69;51.60;100858.66;4992419;28;20664;-51
2022/08/21 11:22:56;;;;;;;4.85;1.55;;;;;;;22.67;49.17;100864.22;5007305;28;20512;-53
2022/08/21 11:25:35;;;;;;;4.85;1.30;;;;;;;22.54;47.46;100861.16;5007696;28;20529;-53
2022/08/21 11:28:10;;;;;;;4.10;1.50;;;;;;;22.63;49.86;100865.53;5007066;28;20045;-55
2022/08/21 11:30:59;;;;;;;3.15;1.50;;;;;;;22.81;50.62;100865.41;4990768;28;20058;-53
2022/08/21 11:33:41;;;;;;;;;;;;;;;22.93;50.74;100864.16;5007966;28;20057;-50
2022/08/21 11:36:37;;;;;;;3.35;1.60;;;;;;;23.12;51.33;100860.31;5011992;28;19929;-48
2022/08/21 11:39:20;;;;;;;3.47;1.17;;;;;;;23.29;51.13;100863.03;5017895;28;20071;-51
2022/08/21 11:41:57;;;;;;;2.65;1.45;;;;;;;23.43;51.46;100854.28;5005797;28;20054;-53
2022/08/21 11:44:54;;;;;;;3.20;1.33;;;;;;;23.57;51.05;100858.97;5012243;28;20545;-52
2022/08/21 11:48:03;;;;;;;2.80;0.95;;;;;;;23.72;49.61;100851.91;5013493;28;20049;-53
2022/08/21 11:50:31;;;;;;;3.33;1.23;;;;;;;23.85;49.03;100846.03;5003459;28;20056;-51
2022/08/21 11:53:16;;;;;;;4.70;1.00;;;;;;;23.97;48.61;100846.50;5014709;28;20059;-55